Time;durP1;ratioP1;P1;durP2;ratioP2;P2;SDS_P1;SDS_P2;PMS_P1;PMS_P2;Temp;Humidity;BMP_temperature;BMP_pressure;BME280_temperature;BME280_humidity;BME280_pressure;Samples;Min_cycle;Max_cycle;Signal;HPM_P1;HPM_P2
2021/04/23 00:00:25;;;;;;;11.30;5.50;;;1.00;99.90;;;;;;5028988;28;20203;-83
2021/04/23 00:02:54;;;;;;;16.37;5.37;;;1.00;99.90;;;;;;5028836;28;20516;-82
2021/04/23 00:05:20;;;;;;;15.57;5.80;;;1.00;99.90;;;;;;5029041;28;20314;-82
2021/04/23 00:07:47;;;;;;;13.83;6.43;;;1.00;99.90;;;;;;5030441;28;20463;-82
2021/04/23 00:10:15;;;;;;;11.73;5.83;;;1.00;99.90;;;;;;5029857;28;20516;-82
2021/04/23 00:12:43;;;;;;;21.53;6.00;;;0.90;99.90;;;;;;5031572;28;20457;-82
2021/04/23 00:15:13;;;;;;;22.97;5.23;;;0.90;99.90;;;;;;5029707;28;20566;-82
2021/04/23 00:17:40;;;;;;;19.33;6.13;;;0.90;99.90;;;;;;5028231;28;21176;-82
2021/04/23 00:20:09;;;;;;;21.70;6.50;;;0.90;99.90;;;;;;5028862;28;20478;-82
2021/04/23 00:22:35;;;;;;;14.47;5.93;;;0.90;99.90;;;;;;5027738;28;20996;-82
2021/04/23 00:25:02;;;;;;;16.80;5.63;;;0.80;99.90;;;;;;5030394;28;20478;-82
2021/04/23 00:27:29;;;;;;;14.77;5.73;;;0.90;99.90;;;;;;5031962;28;20231;-82
2021/04/23 00:29:56;;;;;;;16.90;5.80;;;1.00;99.90;;;;;;5045518;28;20553;-82
2021/04/23 00:35:08;;;;;;;14.07;5.57;;;0.90;99.90;;;;;;5051795;28;20481;-82
2021/04/23 00:37:35;;;;;;;22.43;6.00;;;1.00;99.90;;;;;;5032580;28;20463;-82
2021/04/23 00:40:01;;;;;;;23.60;6.50;;;0.90;99.90;;;;;;5030654;28;20250;-82
2021/04/23 00:42:28;;;;;;;14.83;6.03;;;0.90;99.90;;;;;;5029299;28;20485;-82
2021/04/23 00:44:54;;;;;;;17.90;5.77;;;0.90;99.90;;;;;;5029870;28;21607;-82
2021/04/23 00:47:21;;;;;;;16.23;5.93;;;0.80;99.90;;;;;;5024320;28;20501;-82
2021/04/23 00:49:48;;;;;;;18.00;5.80;;;0.80;99.90;;;;;;5028714;28;20480;-84
2021/04/23 00:52:14;;;;;;;12.57;5.70;;;0.70;99.90;;;;;;5029001;28;20536;-83
2021/04/23 00:54:41;;;;;;;14.27;5.57;;;0.60;99.90;;;;;;5025297;28;20828;-83
2021/04/23 00:57:07;;;;;;;17.20;6.47;;;0.60;99.90;;;;;;5029223;28;20450;-83
2021/04/23 00:59:34;;;;;;;16.47;6.20;;;0.50;99.90;;;;;;5028595;28;20628;-83
2021/04/23 01:02:07;;;;;;;12.97;6.47;;;0.40;99.90;;;;;;5030640;28;20565;-83
2021/04/23 01:04:34;;;;;;;13.30;5.57;;;0.30;99.90;;;;;;5029283;28;20478;-85
2021/04/23 01:07:01;;;;;;;16.97;6.43;;;0.30;99.90;;;;;;5029873;28;20520;-82
2021/04/23 01:09:30;;;;;;;20.03;6.00;;;0.20;99.90;;;;;;5028042;28;20542;-82
2021/04/23 01:12:07;;;;;;;22.27;6.43;;;0.10;99.90;;;;;;5028956;28;20530;-81
2021/04/23 01:14:48;;;;;;;19.63;6.20;;;0.20;99.90;;;;;;5029115;28;20485;-81
2021/04/23 01:17:15;;;;;;;14.97;5.50;;;0.10;99.90;;;;;;5027611;28;20446;-81
2021/04/23 01:19:42;;;;;;;16.53;5.53;;;0.10;99.90;;;;;;5030555;28;20454;-81
2021/04/23 01:25:49;;;;;;;19.93;5.60;;;0.00;99.90;;;;;;5021451;28;20520;-81
2021/04/23 01:28:15;;;;;;;13.37;5.43;;;0.00;99.90;;;;;;5025088;28;20875;-81
2021/04/23 01:30:42;;;;;;;15.67;5.63;;;0.00;99.90;;;;;;5026245;28;20450;-81
2021/04/23 01:33:08;;;;;;;16.17;6.07;;;0.00;99.90;;;;;;5025744;28;21138;-81
2021/04/23 01:35:35;;;;;;;15.43;6.20;;;0.00;99.90;;;;;;5025960;28;20552;-81
2021/04/23 01:38:01;;;;;;;22.13;6.13;;;-0.10;99.90;;;;;;5023979;28;20462;-80
2021/04/23 01:40:28;;;;;;;17.63;6.30;;;-0.10;99.90;;;;;;5022821;28;20502;-80
2021/04/23 01:42:55;;;;;;;23.73;5.77;;;-0.20;99.90;;;;;;5024122;28;20453;-81
2021/04/23 01:45:24;;;;;;;17.90;6.30;;;-0.20;99.90;;;;;;5022962;28;20582;-81
2021/04/23 01:47:51;;;;;;;20.30;5.97;;;-0.30;99.90;;;;;;5023977;28;20473;-81
2021/04/23 01:50:19;;;;;;;12.67;5.67;;;-0.40;99.90;;;;;;5025959;28;20454;-80
2021/04/23 01:52:57;;;;;;;17.33;6.07;;;-0.40;99.90;;;;;;5025651;28;21020;-81
2021/04/23 01:58:47;;;;;;;13.77;5.53;;;-0.40;99.90;;;;;;5026183;28;20417;-81
2021/04/23 02:01:14;;;;;;;16.23;5.03;;;-0.40;99.90;;;;;;5028312;28;20541;-81
2021/04/23 02:03:41;;;;;;;13.73;4.80;;;-0.40;99.90;;;;;;5027844;28;20462;-80
2021/04/23 02:06:09;;;;;;;15.50;6.27;;;-0.40;99.90;;;;;;5029569;28;21114;-80
2021/04/23 02:08:36;;;;;;;15.07;5.77;;;-0.50;99.90;;;;;;5031063;28;20454;-81
2021/04/23 02:11:06;;;;;;;17.77;5.53;;;-0.40;99.90;;;;;;5030560;28;20486;-81
2021/04/23 02:13:35;;;;;;;22.13;5.60;;;-0.40;99.90;;;;;;5040998;28;21698;-82
2021/04/23 02:16:05;;;;;;;16.53;5.53;;;-0.40;99.90;;;;;;5054518;28;20466;-82
2021/04/23 02:18:31;;;;;;;15.63;5.73;;;-0.40;99.90;;;;;;5056151;28;20490;-82
2021/04/23 02:20:58;;;;;;;14.43;5.87;;;-0.50;99.90;;;;;;5041565;28;20462;-81
2021/04/23 02:23:25;;;;;;;17.53;5.80;;;-0.50;99.90;;;;;;5032340;28;20593;-81
2021/04/23 02:25:53;;;;;;;18.40;5.40;;;-0.50;99.90;;;;;;5027457;28;20483;-81
2021/04/23 02:28:19;;;;;;;13.67;5.43;;;-0.50;99.90;;;;;;5029116;28;20533;-82
2021/04/23 02:30:52;;;;;;;15.43;5.47;;;-0.60;99.90;;;;;;5029131;28;20454;-81
2021/04/23 02:33:21;;;;;;;14.23;5.50;;;-0.60;99.90;;;;;;5028513;28;20543;-81
2021/04/23 02:35:50;;;;;;;15.30;6.17;;;-0.60;99.90;;;;;;5030380;28;20906;-82
2021/04/23 02:38:17;;;;;;;13.73;5.67;;;-0.60;99.90;;;;;;5028694;28;20553;-81
2021/04/23 02:40:46;;;;;;;17.47;6.43;;;-0.70;99.90;;;;;;5030886;28;22172;-82
2021/04/23 02:43:19;;;;;;;16.23;5.73;;;-0.60;99.90;;;;;;5028007;28;20458;-81
2021/04/23 02:45:49;;;;;;;20.57;5.50;;;-0.60;99.90;;;;;;5030423;28;20541;-81
2021/04/23 02:48:17;;;;;;;19.93;6.07;;;-0.60;99.90;;;;;;5027861;28;20450;-81
2021/04/23 02:50:48;;;;;;;16.00;5.87;;;-0.60;99.90;;;;;;5027896;28;20462;-81
2021/04/23 02:53:15;;;;;;;15.97;5.43;;;-0.70;99.90;;;;;;5028424;28;20463;-82
2021/04/23 02:55:42;;;;;;;20.23;5.67;;;-0.60;99.90;;;;;;5027864;28;20482;-82
2021/04/23 02:58:12;;;;;;;13.23;5.53;;;-0.60;99.90;;;;;;5027280;28;20457;-82
2021/04/23 03:03:49;;;;;;;19.13;5.57;;;-0.60;99.90;;;;;;4987803;28;20527;-82
2021/04/23 03:06:17;;;;;;;16.00;6.10;;;-0.60;99.90;;;;;;5020261;28;20496;-82
2021/04/23 03:08:44;;;;;;;15.50;5.60;;;-0.60;99.90;;;;;;5025787;28;20557;-82
2021/04/23 03:11:12;;;;;;;13.93;5.60;;;-0.60;99.90;;;;;;5028595;28;20453;-82
2021/04/23 03:13:41;;;;;;;22.37;6.33;;;-0.60;99.90;;;;;;5026156;28;20458;-81
2021/04/23 03:16:10;;;;;;;19.50;5.87;;;-0.60;99.90;;;;;;5029011;28;20451;-82
2021/04/23 03:18:39;;;;;;;24.97;6.90;;;-0.60;99.90;;;;;;5028235;28;20549;-81
2021/04/23 03:21:08;;;;;;;16.63;5.63;;;-0.50;99.90;;;;;;5027107;28;20468;-81
2021/04/23 03:23:35;;;;;;;22.97;6.27;;;-0.50;99.90;;;;;;5026259;28;20462;-81
2021/04/23 03:26:05;;;;;;;20.53;5.67;;;-0.60;99.90;;;;;;5026566;28;20564;-82
2021/04/23 03:28:32;;;;;;;16.67;5.47;;;;;;;;;;5027425;28;20588;-81
2021/04/23 03:30:59;;;;;;;25.13;5.90;;;;;;;;;;5027114;28;21005;-81
2021/04/23 03:33:25;;;;;;;15.63;5.83;;;;;;;;;;5028627;28;20540;-82
2021/04/23 03:35:55;;;;;;;13.63;5.30;;;;;;;;;;5028001;28;20548;-81
2021/04/23 03:38:23;;;;;;;20.10;5.27;;;;;;;;;;5028345;28;20505;-81
2021/04/23 03:40:51;;;;;;;11.63;5.00;;;;;;;;;;5028974;28;20451;-81
2021/04/23 03:43:18;;;;;;;21.37;6.10;;;;;;;;;;5028398;28;20986;-81
2021/04/23 03:45:45;;;;;;;16.43;5.53;;;;;;;;;;5027273;28;20533;-82
2021/04/23 03:48:12;;;;;;;17.07;5.90;;;;;;;;;;5025503;28;20520;-81
2021/04/23 03:50:40;;;;;;;20.83;6.40;;;;;;;;;;5027768;28;20887;-81
2021/04/23 03:53:07;;;;;;;15.23;5.60;;;;;;;;;;5027977;28;21769;-81
2021/04/23 03:55:36;;;;;;;15.10;5.83;;;;;;;;;;5024820;28;20525;-82
2021/04/23 04:01:13;;;;;;;14.50;5.77;;;;;;;;;;5032077;28;20474;-82
2021/04/23 04:03:39;;;;;;;19.43;5.87;;;;;;;;;;5033823;28;20471;-81
2021/04/23 04:06:06;;;;;;;17.40;5.80;;;;;;;;;;5034649;28;20521;-82
2021/04/23 04:08:34;;;;;;;23.07;5.83;;;;;;;;;;5027867;28;20553;-83
2021/04/23 04:11:01;;;;;;;10.03;5.30;;;;;;;;;;5025778;28;20491;-83
2021/04/23 04:13:28;;;;;;;11.23;5.50;;;;;;;;;;5023023;28;20466;-83
2021/04/23 04:15:55;;;;;;;21.40;6.60;;;;;;;;;;5027503;28;20568;-83
2021/04/23 04:18:23;;;;;;;21.23;5.97;;;-0.60;99.90;;;;;;5022634;28;20461;-83
2021/04/23 04:20:51;;;;;;;15.40;6.07;;;-1.10;99.90;;;;;;5026234;28;20545;-82
2021/04/23 04:23:20;;;;;;;13.90;5.10;;;-1.10;99.90;;;;;;5027040;28;20439;-82
2021/04/23 04:25:50;;;;;;;18.33;6.13;;;-1.00;99.90;;;;;;5027202;28;20474;-82
2021/04/23 04:28:17;;;;;;;19.90;5.80;;;-1.00;99.90;;;;;;5025574;28;21042;-83
2021/04/23 04:34:21;;;;;;;16.83;6.53;;;-1.00;99.90;;;;;;5027250;28;20469;-82
2021/04/23 04:36:47;;;;;;;17.17;6.73;;;-1.00;99.90;;;;;;5028664;28;20451;-81
2021/04/23 04:39:14;;;;;;;18.00;5.70;;;-0.90;99.90;;;;;;5028608;28;20529;-81
2021/04/23 04:41:40;;;;;;;19.37;5.87;;;-0.90;99.90;;;;;;5025912;28;20458;-81
2021/04/23 04:44:07;;;;;;;20.80;6.13;;;-0.80;99.90;;;;;;5019343;28;20502;-82
2021/04/23 04:46:34;;;;;;;18.20;6.20;;;-0.70;99.90;;;;;;5023543;28;20486;-81
2021/04/23 04:49:00;;;;;;;17.77;6.77;;;-0.70;99.90;;;;;;5021538;28;20501;-82
2021/04/23 04:51:28;;;;;;;15.27;5.80;;;-0.60;99.90;;;;;;5025044;28;20830;-82
2021/04/23 04:53:54;;;;;;;27.30;5.77;;;-0.50;99.90;;;;;;5025363;28;20952;-82
2021/04/23 04:56:21;;;;;;;15.83;5.77;;;-0.40;99.90;;;;;;5025642;28;20550;-81
2021/04/23 04:58:47;;;;;;;16.13;6.03;;;-0.30;99.90;;;;;;5025105;28;20565;-82
2021/04/23 05:01:15;;;;;;;14.80;5.20;;;-0.20;99.90;;;;;;5021928;28;20470;-81
2021/04/23 05:03:42;;;;;;;12.90;5.53;;;-0.10;99.90;;;;;;5025458;28;20473;-81
2021/04/23 05:06:10;;;;;;;15.63;6.07;;;0.40;99.90;;;;;;5020669;28;20929;-82
2021/04/23 05:08:38;;;;;;;13.93;5.93;;;1.30;99.90;;;;;;5028534;28;20463;-83
2021/04/23 05:11:07;;;;;;;16.10;5.67;;;2.80;99.90;;;;;;5028613;28;20458;-83
2021/04/23 05:13:34;;;;;;;15.30;5.43;;;4.30;99.90;;;;;;5024971;28;20669;-83
2021/04/23 05:16:00;;;;;;;18.30;5.13;;;5.20;99.90;;;;;;5025737;28;20318;-83
2021/04/23 05:18:27;;;;;;;13.50;5.17;;;5.90;99.90;;;;;;5022734;28;20628;-83
2021/04/23 05:20:54;;;;;;;18.57;5.27;;;6.30;99.90;;;;;;5024227;28;20215;-83
2021/04/23 05:23:20;;;;;;;14.77;5.23;;;6.40;99.90;;;;;;5023810;28;20295;-83
2021/04/23 05:25:48;;;;;;;17.67;5.60;;;6.80;99.90;;;;;;5024544;28;20301;-83
2021/04/23 05:28:14;;;;;;;14.73;5.83;;;7.50;99.90;;;;;;5028471;28;20215;-83
2021/04/23 05:30:41;;;;;;;16.30;5.70;;;7.90;99.90;;;;;;5026625;28;20327;-84
2021/04/23 05:33:09;;;;;;;10.60;4.80;;;;;;;;;;5027735;28;20200;-83
2021/04/23 05:35:39;;;;;;;13.57;5.57;;;;;;;;;;5026070;28;20273;-83
2021/04/23 05:38:06;;;;;;;12.47;5.17;;;;;;;;;;5024094;28;20765;-84
2021/04/23 05:40:34;;;;;;;13.03;5.63;;;;;;;;;;5026800;28;20218;-83
2021/04/23 05:43:03;;;;;;;12.73;5.20;;;8.60;99.90;;;;;;5030057;28;20732;-83
2021/04/23 05:45:29;;;;;;;11.77;5.23;;;10.10;99.90;;;;;;5037858;28;20203;-85
2021/04/23 05:47:56;;;;;;;14.53;4.40;;;10.00;99.90;;;;;;5048287;28;20199;-84
2021/04/23 05:50:23;;;;;;;17.80;5.60;;;10.30;99.90;;;;;;5054457;28;20199;-84
2021/04/23 05:52:50;;;;;;;16.83;5.13;;;10.40;99.90;;;;;;5044796;28;20211;-82
2021/04/23 05:55:18;;;;;;;14.03;5.20;;;10.70;99.90;;;;;;5035381;28;20314;-83
2021/04/23 05:57:46;;;;;;;10.87;5.33;;;10.70;99.90;;;;;;5029796;28;20259;-84
2021/04/23 06:00:15;;;;;;;11.53;4.57;;;;;;;;;;5029241;28;20227;-84
2021/04/23 06:02:41;;;;;;;11.10;5.30;;;10.90;99.90;;;;;;5028716;28;20242;-83
2021/04/23 06:05:10;;;;;;;17.17;5.13;;;11.20;99.90;;;;;;5029447;28;20307;-83
2021/04/23 06:07:37;;;;;;;22.10;6.20;;;11.40;99.90;;;;;;5029824;28;20279;-83
2021/04/23 06:10:04;;;;;;;14.77;4.93;;;11.40;99.90;;;;;;5028894;28;20195;-84
2021/04/23 06:12:31;;;;;;;14.70;5.60;;;12.20;99.90;;;;;;5027804;28;20211;-84
2021/04/23 06:14:57;;;;;;;10.67;5.00;;;13.40;99.90;;;;;;5031781;28;20243;-83
2021/04/23 06:17:25;;;;;;;13.27;4.83;;;;;;;;;;5030921;28;20223;-83
2021/04/23 06:19:51;;;;;;;12.40;5.03;;;;;;;;;;5029379;28;20681;-84
2021/04/23 06:22:18;;;;;;;10.10;4.93;;;;;;;;;;5031113;28;20792;-84
2021/04/23 06:24:45;;;;;;;21.13;5.67;;;;;;;;;;5037047;28;20227;-83
2021/04/23 06:27:11;;;;;;;13.63;5.53;;;;;;;;;;5029698;28;20298;-83
2021/04/23 06:29:38;;;;;;;14.13;5.10;;;;;;;;;;5024290;28;20216;-82
2021/04/23 06:32:05;;;;;;;13.30;5.53;;;;;;;;;;5037275;28;20299;-82
2021/04/23 06:34:33;;;;;;;12.83;5.50;;;;;;;;;;5038699;28;20234;-83
2021/04/23 06:37:00;;;;;;;16.73;6.00;;;;;;;;;;5038229;28;20231;-82
2021/04/23 06:39:26;;;;;;;15.83;5.30;;;;;;;;;;5039893;28;20230;-82
2021/04/23 06:41:53;;;;;;;11.33;4.90;;;;;;;;;;5041856;28;20204;-83
2021/04/23 06:44:20;;;;;;;16.77;5.87;;;;;;;;;;5039259;28;20222;-84
2021/04/23 06:46:47;;;;;;;17.63;5.37;;;;;;;;;;5037068;28;20243;-84
2021/04/23 06:49:13;;;;;;;15.47;5.47;;;;;;;;;;5038250;28;20215;-83
2021/04/23 06:51:41;;;;;;;13.07;5.43;;;14.20;99.90;;;;;;5040085;28;21166;-85
2021/04/23 06:54:08;;;;;;;14.37;5.20;;;16.40;99.90;;;;;;5036677;28;20251;-84
2021/04/23 06:56:34;;;;;;;16.00;5.47;;;16.20;99.90;;;;;;5035804;28;20327;-82
2021/04/23 06:59:01;;;;;;;12.33;5.17;;;16.30;99.90;;;;;;5035424;28;20231;-84
2021/04/23 07:01:28;;;;;;;15.17;5.07;;;16.30;99.90;;;;;;5036417;28;20216;-83
2021/04/23 07:03:54;;;;;;;12.20;5.20;;;16.70;99.90;;;;;;5035748;28;20214;-84
2021/04/23 07:06:21;;;;;;;13.00;5.10;;;16.00;99.90;;;;;;5036608;28;20227;-82
2021/04/23 07:08:48;;;;;;;14.73;5.10;;;16.20;99.90;;;;;;5036224;28;20207;-84
2021/04/23 07:11:16;;;;;;;13.53;4.83;;;16.40;99.90;;;;;;5038310;28;20216;-84
2021/04/23 07:13:42;;;;;;;14.30;5.03;;;16.70;99.90;;;;;;5036423;28;20200;-83
2021/04/23 07:16:09;;;;;;;10.23;4.27;;;17.30;99.90;;;;;;5034295;28;20200;-84
2021/04/23 07:18:35;;;;;;;14.97;4.80;;;18.00;99.90;;;;;;5034543;28;20279;-83
2021/04/23 07:21:02;;;;;;;11.60;4.53;;;16.20;99.90;;;;;;5034679;28;20238;-83
2021/04/23 07:23:28;;;;;;;12.27;5.07;;;14.20;99.90;;;;;;5033688;28;20223;-83
2021/04/23 07:25:55;;;;;;;12.37;5.60;;;12.30;99.90;;;;;;5036476;28;20246;-83
2021/04/23 07:28:22;;;;;;;15.93;6.07;;;11.60;99.90;;;;;;5032613;28;20207;-82
2021/04/23 07:30:49;;;;;;;12.77;5.53;;;11.00;99.90;;;;;;5037175;28;20226;-81
2021/04/23 07:33:15;;;;;;;10.60;5.03;;;11.00;99.90;;;;;;5049565;28;20200;-82
2021/04/23 07:35:44;;;;;;;15.67;5.50;;;12.10;99.90;;;;;;5059967;28;20223;-83
2021/04/23 07:38:11;;;;;;;12.60;5.27;;;12.60;99.90;;;;;;5047463;28;20204;-83
2021/04/23 07:40:38;;;;;;;12.50;5.17;;;13.40;99.90;;;;;;5038706;28;20243;-83
2021/04/23 07:43:06;;;;;;;13.83;5.13;;;15.00;99.90;;;;;;5037657;28;20250;-82
2021/04/23 07:45:32;;;;;;;13.83;5.30;;;16.00;99.90;;;;;;5035945;28;20250;-83
2021/04/23 07:47:59;;;;;;;14.10;5.50;;;15.60;99.90;;;;;;5027695;28;20291;-83
2021/04/23 07:50:27;;;;;;;13.20;5.63;;;14.30;99.90;;;;;;5033581;28;20258;-84
2021/04/23 07:52:54;;;;;;;13.20;5.10;;;14.00;99.90;;;;;;5030605;28;20203;-83
2021/04/23 07:55:22;;;;;;;10.80;5.10;;;13.90;99.90;;;;;;5030876;28;20219;-83
2021/04/23 07:57:50;;;;;;;11.17;4.90;;;13.90;99.90;;;;;;5034952;28;20265;-83
2021/04/23 08:00:20;;;;;;;17.57;5.87;;;13.90;99.90;;;;;;5031698;28;20642;-84
2021/04/23 08:02:47;;;;;;;14.00;5.17;;;15.50;99.90;;;;;;5028294;28;20283;-84
2021/04/23 08:05:16;;;;;;;13.73;5.10;;;15.80;99.90;;;;;;5028553;28;20319;-83
2021/04/23 08:07:44;;;;;;;9.53;5.17;;;15.10;99.90;;;;;;5028796;28;20599;-83
2021/04/23 08:10:14;;;;;;;12.93;4.87;;;15.10;99.90;;;;;;5024359;28;20257;-83
2021/04/23 08:12:41;;;;;;;14.23;5.77;;;15.10;99.90;;;;;;5023307;28;20248;-83
2021/04/23 08:15:09;;;;;;;14.70;5.17;;;13.90;99.90;;;;;;5027454;28;20330;-82
2021/04/23 08:17:37;;;;;;;14.47;5.37;;;14.60;99.90;;;;;;5032830;28;20731;-84
2021/04/23 08:20:05;;;;;;;10.17;5.37;;;15.80;99.90;;;;;;5025791;28;20223;-83
2021/04/23 08:22:31;;;;;;;9.20;5.03;;;17.10;99.90;;;;;;5027741;28;20211;-84
2021/04/23 08:24:58;;;;;;;10.83;4.70;;;17.40;99.90;;;;;;5024599;28;20228;-84
2021/04/23 08:27:25;;;;;;;13.70;4.90;;;18.40;99.90;;;;;;5019585;28;20239;-85
2021/04/23 08:29:53;;;;;;;9.40;4.73;;;18.60;99.90;;;;;;5029848;28;22050;-82
2021/04/23 08:32:19;;;;;;;11.33;4.97;;;18.90;99.90;;;;;;5026186;28;20257;-83
2021/04/23 08:34:46;;;;;;;9.73;5.00;;;19.20;99.90;;;;;;5028954;28;20234;-83
2021/04/23 08:37:13;;;;;;;13.30;5.10;;;18.40;99.90;;;;;;5026780;28;20295;-84
2021/04/23 08:39:40;;;;;;;14.30;5.13;;;18.20;99.90;;;;;;5028388;28;20285;-85
2021/04/23 08:42:07;;;;;;;13.93;5.23;;;17.90;99.90;;;;;;5028467;28;20212;-85
2021/04/23 08:44:34;;;;;;;10.87;4.97;;;18.20;99.90;;;;;;5026892;28;20231;-85
2021/04/23 08:47:00;;;;;;;12.77;4.93;;;18.70;99.90;;;;;;5029729;28;20306;-84
2021/04/23 08:49:27;;;;;;;16.27;5.10;;;18.70;99.90;;;;;;5029772;28;20230;-82
2021/04/23 08:51:55;;;;;;;11.90;4.80;;;19.30;99.90;;;;;;5028464;28;20254;-85
2021/04/23 08:54:24;;;;;;;13.13;5.10;;;19.80;99.90;;;;;;5025808;28;20777;-83
2021/04/23 08:57:26;;;;;;;10.90;4.47;;;19.80;99.90;;;;;;5022189;28;20242;-83
2021/04/23 08:59:53;;;;;;;13.20;4.73;;;20.50;99.90;;;;;;5021226;28;20432;-82
2021/04/23 09:02:20;;;;;;;8.57;4.80;;;20.40;99.10;;;;;;5027371;28;20223;-85
2021/04/23 09:04:46;;;;;;;10.73;4.90;;;19.30;98.90;;;;;;5029289;28;20228;-82
2021/04/23 09:07:14;;;;;;;11.10;5.10;;;17.70;99.90;;;;;;5025733;28;20294;-85
2021/04/23 09:09:42;;;;;;;12.83;5.43;;;16.20;99.90;;;;;;5030124;28;20226;-84
2021/04/23 09:12:20;;;;;;;10.90;4.97;;;14.60;99.90;;;;;;5029901;28;20212;-82
2021/04/23 09:14:48;;;;;;;10.07;5.30;;;13.80;99.90;;;;;;5039571;28;20234;-82
2021/04/23 09:17:18;;;;;;;14.77;4.97;;;12.90;99.90;;;;;;5047159;28;20191;-81
2021/04/23 09:19:45;;;;;;;15.43;5.53;;;12.50;99.90;;;;;;5051029;28;20190;-81
2021/04/23 09:22:24;;;;;;;14.40;5.47;;;12.20;99.90;;;;;;5035855;28;20282;-83
2021/04/23 09:25:00;;;;;;;12.37;5.50;;;12.10;99.90;;;;;;5029777;28;20258;-83
2021/04/23 09:27:29;;;;;;;14.50;5.17;;;11.90;99.90;;;;;;5027247;28;20227;-83
2021/04/23 09:29:58;;;;;;;14.37;4.80;;;11.70;99.90;;;;;;5026550;28;20215;-83
2021/04/23 09:32:26;;;;;;;12.80;5.27;;;11.80;99.90;;;;;;5030143;28;20230;-83
2021/04/23 09:34:55;;;;;;;13.37;5.40;;;11.70;99.90;;;;;;5030458;28;20679;-82
2021/04/23 09:37:24;;;;;;;20.17;5.93;;;11.70;99.90;;;;;;5027823;28;20214;-83
2021/04/23 09:39:52;;;;;;;12.43;5.47;;;12.00;99.90;;;;;;5028535;28;20665;-83
2021/04/23 09:42:20;;;;;;;12.90;5.03;;;12.20;99.90;;;;;;5029314;28;20216;-83
2021/04/23 09:44:48;;;;;;;12.47;5.33;;;12.30;99.90;;;;;;5028297;28;20306;-82
2021/04/23 09:50:43;;;;;;;12.03;4.50;;;12.60;99.90;;;;;;4998703;28;20242;-84
2021/04/23 09:53:28;;;;;;;15.07;4.90;;;12.40;99.90;;;;;;5027738;28;20652;-83
2021/04/23 09:55:56;;;;;;;12.60;4.80;;;12.10;99.90;;;;;;5028726;28;20234;-84
2021/04/23 09:58:23;;;;;;;12.10;4.33;;;12.10;99.90;;;;;;5030014;28;20234;-84
2021/04/23 10:00:58;;;;;;;9.90;4.30;;;12.20;99.90;;;;;;5028092;28;20199;-84
2021/04/23 10:03:32;;;;;;;9.83;4.83;;;12.40;99.90;;;;;;5028332;28;20195;-84
2021/04/23 10:06:18;;;;;;;8.50;4.53;;;12.40;99.90;;;;;;5031837;28;20222;-83
2021/04/23 10:08:45;;;;;;;9.97;4.90;;;12.40;99.90;;;;;;5027156;28;20246;-82
2021/04/23 10:11:12;;;;;;;10.40;5.03;;;12.40;99.90;;;;;;5028470;28;20204;-84
2021/04/23 10:13:38;;;;;;;14.37;4.80;;;12.30;99.90;;;;;;5027512;28;20215;-85
2021/04/23 10:16:05;;;;;;;6.87;4.00;;;12.20;99.90;;;;;;5028855;28;20311;-84
2021/04/23 10:18:32;;;;;;;8.60;4.00;;;12.30;99.90;;;;;;5028097;28;20201;-83
2021/04/23 10:21:00;;;;;;;8.97;3.70;;;12.50;99.90;;;;;;5030470;28;20256;-84
2021/04/23 10:23:29;;;;;;;10.33;4.07;;;12.50;99.90;;;;;;5027655;28;20203;-84
2021/04/23 10:25:56;;;;;;;8.63;4.10;;;12.80;99.90;;;;;;5026416;28;20223;-84
2021/04/23 10:28:25;;;;;;;9.63;4.33;;;13.10;99.90;;;;;;5026069;28;20496;-84
2021/04/23 10:30:53;;;;;;;10.70;4.03;;;13.20;99.90;;;;;;5025236;28;20219;-84
2021/04/23 10:33:21;;;;;;;8.80;3.90;;;13.40;99.90;;;;;;5027490;28;20235;-84
2021/04/23 10:35:50;;;;;;;10.60;4.07;;;13.30;99.90;;;;;;5028642;28;20222;-83
2021/04/23 10:38:18;;;;;;;10.37;4.43;;;13.50;99.90;;;;;;5026523;28;20214;-84
2021/04/23 10:40:53;;;;;;;10.87;4.10;;;13.40;99.90;;;;;;5028311;28;20703;-82
2021/04/23 10:43:22;;;;;;;11.80;4.40;;;13.30;99.90;;;;;;5029363;28;20195;-83
2021/04/23 10:46:04;;;;;;;10.00;4.10;;;13.30;99.90;;;;;;5030045;28;20277;-84
2021/04/23 10:48:32;;;;;;;8.73;3.80;;;13.30;99.90;;;;;;5031550;28;20207;-83
2021/04/23 10:51:00;;;;;;;9.27;3.90;;;13.20;99.90;;;;;;5027364;28;20227;-83
2021/04/23 10:53:42;;;;;;;7.57;3.60;;;13.40;99.90;;;;;;5029096;28;20593;-84
2021/04/23 10:56:22;;;;;;;9.00;3.90;;;13.30;99.90;;;;;;5047223;28;20188;-82
2021/04/23 10:58:50;;;;;;;11.10;3.90;;;13.70;99.90;;;;;;5055569;28;20211;-82
2021/04/23 11:01:28;;;;;;;14.37;3.83;;;13.70;99.90;;;;;;5051573;28;20204;-83
2021/04/23 11:07:17;;;;;;;10.67;3.93;;;14.20;99.90;;;;;;5034436;28;20246;-83
2021/04/23 11:09:57;;;;;;;9.77;3.67;;;14.30;99.90;;;;;;5030166;28;20207;-83
2021/04/23 11:12:25;;;;;;;9.13;3.60;;;14.20;99.90;;;;;;5035166;28;20199;-82
2021/04/23 11:15:11;;;;;;;10.47;3.73;;;14.10;99.90;;;;;;5027130;28;20661;-84
2021/04/23 11:17:38;;;;;;;9.47;3.63;;;13.90;99.90;;;;;;5031203;28;20215;-83
2021/04/23 11:20:29;;;;;;;9.90;3.33;;;13.90;99.90;;;;;;5031534;28;20232;-83
2021/04/23 11:22:58;;;;;;;7.70;3.33;;;14.10;99.90;;;;;;5031904;28;20228;-82
2021/04/23 11:25:25;;;;;;;7.97;3.23;;;14.40;99.90;;;;;;5031578;28;20226;-83
2021/04/23 11:28:08;;;;;;;8.53;3.43;;;14.50;99.90;;;;;;5023541;28;20237;-83
2021/04/23 11:31:11;;;;;;;7.90;2.90;;;14.40;99.90;;;;;;5032042;28;20208;-83
2021/04/23 11:33:58;;;;;;;7.50;3.33;;;14.50;99.90;;;;;;5029568;28;20624;-81
2021/04/23 11:36:27;;;;;;;11.13;3.80;;;14.70;99.90;;;;;;5028658;28;20203;-84
2021/04/23 11:38:56;;;;;;;6.70;3.20;;;14.80;99.90;;;;;;5024710;28;20254;-83
2021/04/23 11:41:22;;;;;;;7.43;2.97;;;15.00;99.90;;;;;;5024819;28;20684;-84
2021/04/23 11:43:49;;;;;;;6.60;3.13;;;15.00;99.90;;;;;;5025426;28;20213;-83
2021/04/23 11:46:15;;;;;;;7.10;3.37;;;15.00;99.90;;;;;;5027972;28;20257;-82
2021/04/23 11:48:49;;;;;;;6.70;2.90;;;15.10;99.90;;;;;;5025618;28;20204;-83
2021/04/23 11:51:15;;;;;;;8.00;2.70;;;14.80;99.90;;;;;;5029394;28;20208;-83
2021/04/23 11:53:47;;;;;;;11.37;3.03;;;14.90;99.90;;;;;;5030288;28;20279;-84
2021/04/23 11:56:14;;;;;;;8.87;2.90;;;15.00;99.90;;;;;;5021458;28;20218;-84
2021/04/23 11:58:42;;;;;;;10.37;3.40;;;14.80;99.90;;;;;;5026723;28;20319;-83
2021/04/23 12:01:09;;;;;;;4.87;2.77;;;14.80;99.90;;;;;;5028278;28;20212;-83
2021/04/23 12:03:35;;;;;;;9.93;3.80;;;14.90;99.90;;;;;;5026606;28;20204;-83
2021/04/23 12:06:03;;;;;;;9.67;2.73;;;14.90;99.90;;;;;;5026220;28;20235;-83
2021/04/23 12:08:32;;;;;;;8.80;3.03;;;15.10;99.90;;;;;;5024257;28;20693;-81
2021/04/23 12:11:00;;;;;;;9.00;3.07;;;15.10;99.90;;;;;;5032153;28;20201;-82
2021/04/23 12:13:29;;;;;;;10.47;3.07;;;15.10;99.90;;;;;;5025151;28;20274;-81
2021/04/23 12:15:59;;;;;;;7.73;3.07;;;15.20;99.90;;;;;;5027381;28;20230;-83
2021/04/23 12:18:26;;;;;;;16.77;4.23;;;15.30;99.90;;;;;;5023264;28;20210;-83
2021/04/23 12:21:26;;;;;;;13.90;3.80;;;15.20;99.90;;;;;;5025057;28;20224;-83
2021/04/23 12:23:55;;;;;;;8.50;3.03;;;15.10;99.90;;;;;;5023238;28;20242;-83
2021/04/23 12:26:22;;;;;;;7.17;3.20;;;15.00;99.90;;;;;;5026474;28;20207;-83
2021/04/23 12:28:50;;;;;;;6.80;3.10;;;15.00;99.90;;;;;;5024116;28;20212;-83
2021/04/23 12:31:20;;;;;;;11.70;3.20;;;15.00;99.90;;;;;;5026584;28;20234;-81
2021/04/23 12:33:48;;;;;;;8.00;3.10;;;14.90;99.90;;;;;;5023896;28;20213;-82
2021/04/23 12:39:52;;;;;;;11.40;3.30;;;15.00;99.90;;;;;;4991823;28;20245;-81
2021/04/23 12:42:19;;;;;;;11.00;3.30;;;15.10;99.90;;;;;;5023265;28;20223;-83
2021/04/23 12:44:46;;;;;;;9.10;3.53;;;15.10;99.90;;;;;;5029109;28;20232;-84
2021/04/23 12:47:13;;;;;;;10.20;3.17;;;15.00;99.90;;;;;;5030249;28;20230;-84
2021/04/23 12:49:42;;;;;;;8.90;3.40;;;15.20;99.90;;;;;;5032381;28;20211;-83
2021/04/23 12:52:10;;;;;;;9.67;3.00;;;15.10;99.90;;;;;;5034752;28;20626;-84
2021/04/23 12:54:38;;;;;;;9.13;2.70;;;15.00;99.90;;;;;;5026534;28;20220;-83
2021/04/23 12:57:08;;;;;;;9.43;2.90;;;15.20;99.90;;;;;;5025677;28;20254;-83
2021/04/23 12:59:46;;;;;;;8.27;3.13;;;15.40;99.90;;;;;;5028472;28;20201;-83
2021/04/23 13:02:26;;;;;;;6.27;3.10;;;15.60;99.90;;;;;;5029769;28;20235;-83
2021/04/23 13:05:05;;;;;;;8.67;2.73;;;15.30;99.90;;;;;;5030410;28;20246;-83
2021/04/23 13:07:32;;;;;;;6.87;2.80;;;15.40;99.90;;;;;;5026334;28;20216;-84
2021/04/23 13:10:00;;;;;;;8.90;2.60;;;15.50;99.90;;;;;;5033477;28;20283;-83
2021/04/23 13:12:35;;;;;;;8.63;2.97;;;15.40;99.90;;;;;;5029894;28;20246;-83
2021/04/23 13:15:02;;;;;;;8.67;2.77;;;15.40;99.90;;;;;;5027751;28;20286;-83
2021/04/23 13:17:39;;;;;;;8.53;2.70;;;15.40;99.90;;;;;;5021592;28;20239;-83
2021/04/23 13:20:17;;;;;;;8.23;2.70;;;15.30;99.90;;;;;;5027090;28;20208;-83
2021/04/23 13:22:46;;;;;;;4.97;2.53;;;15.40;99.90;;;;;;5027311;28;20203;-83
2021/04/23 13:25:19;;;;;;;10.00;2.73;;;15.40;99.90;;;;;;5027791;28;20628;-83
2021/04/23 13:27:48;;;;;;;6.30;2.60;;;15.50;99.90;;;;;;5025139;28;20251;-81
2021/04/23 13:30:33;;;;;;;10.10;2.83;;;15.60;99.90;;;;;;5028032;28;20200;-83